sensor_id;sensor_type;location;lat;lon;timestamp;P1;durP1;ratioP1;P2;durP2;ratioP2
1224;SDS011;602;48.000;7.840;2022-09-06T00:01:09;3.87;;;3.10;;
1224;SDS011;602;48.000;7.840;2022-09-06T00:03:38;3.50;;;2.67;;
1224;SDS011;602;48.000;7.840;2022-09-06T00:06:06;3.30;;;2.73;;
1224;SDS011;602;48.000;7.840;2022-09-06T00:08:34;3.67;;;3.30;;
1224;SDS011;602;48.000;7.840;2022-09-06T00:11:01;3.60;;;3.00;;
1224;SDS011;602;48.000;7.840;2022-09-06T00:13:28;2.40;;;2.23;;
1224;SDS011;602;48.000;7.840;2022-09-06T00:15:57;2.70;;;2.50;;
1224;SDS011;602;48.000;7.840;2022-09-06T00:18:30;3.30;;;2.60;;
1224;SDS011;602;48.000;7.840;2022-09-06T00:20:56;3.43;;;2.77;;
1224;SDS011;602;48.000;7.840;2022-09-06T00:23:23;2.47;;;2.27;;
1224;SDS011;602;48.000;7.840;2022-09-06T00:25:50;2.90;;;2.70;;
1224;SDS011;602;48.000;7.840;2022-09-06T00:28:17;3.00;;;2.70;;
1224;SDS011;602;48.000;7.840;2022-09-06T00:30:44;2.07;;;1.97;;
1224;SDS011;602;48.000;7.840;2022-09-06T00:33:13;2.67;;;2.47;;
1224;SDS011;602;48.000;7.840;2022-09-06T00:35:40;2.63;;;2.30;;
1224;SDS011;602;48.000;7.840;2022-09-06T00:38:08;3.60;;;2.50;;
1224;SDS011;602;48.000;7.840;2022-09-06T00:40:35;4.87;;;2.43;;
1224;SDS011;602;48.000;7.840;2022-09-06T00:43:02;2.77;;;2.57;;
1224;SDS011;602;48.000;7.840;2022-09-06T00:45:29;4.93;;;2.87;;
1224;SDS011;602;48.000;7.840;2022-09-06T00:47:57;3.27;;;2.60;;
1224;SDS011;602;48.000;7.840;2022-09-06T00:50:27;6.87;;;2.43;;
1224;SDS011;602;48.000;7.840;2022-09-06T00:52:55;2.83;;;2.63;;
1224;SDS011;602;48.000;7.840;2022-09-06T00:55:22;4.80;;;2.37;;
1224;SDS011;602;48.000;7.840;2022-09-06T00:57:50;3.30;;;3.00;;
1224;SDS011;602;48.000;7.840;2022-09-06T01:00:18;2.67;;;2.40;;
1224;SDS011;602;48.000;7.840;2022-09-06T01:02:47;2.53;;;2.33;;
1224;SDS011;602;48.000;7.840;2022-09-06T01:05:14;2.97;;;2.73;;
1224;SDS011;602;48.000;7.840;2022-09-06T01:07:46;3.27;;;2.70;;
1224;SDS011;602;48.000;7.840;2022-09-06T01:10:29;2.87;;;2.30;;
1224;SDS011;602;48.000;7.840;2022-09-06T01:13:08;6.37;;;2.90;;
1224;SDS011;602;48.000;7.840;2022-09-06T01:15:51;2.80;;;2.33;;
1224;SDS011;602;48.000;7.840;2022-09-06T01:18:27;2.80;;;2.60;;
1224;SDS011;602;48.000;7.840;2022-09-06T01:21:05;2.43;;;2.27;;
1224;SDS011;602;48.000;7.840;2022-09-06T01:23:53;2.60;;;2.40;;
1224;SDS011;602;48.000;7.840;2022-09-06T01:26:51;2.50;;;2.30;;
1224;SDS011;602;48.000;7.840;2022-09-06T01:29:40;3.13;;;2.27;;
1224;SDS011;602;48.000;7.840;2022-09-06T01:32:11;3.80;;;2.50;;
1224;SDS011;602;48.000;7.840;2022-09-06T01:34:44;3.00;;;2.23;;
1224;SDS011;602;48.000;7.840;2022-09-06T01:37:16;2.70;;;2.50;;
1224;SDS011;602;48.000;7.840;2022-09-06T01:39:45;2.70;;;2.50;;
1224;SDS011;602;48.000;7.840;2022-09-06T01:42:13;2.73;;;2.47;;
1224;SDS011;602;48.000;7.840;2022-09-06T01:44:45;3.00;;;2.80;;
1224;SDS011;602;48.000;7.840;2022-09-06T01:47:20;4.93;;;2.50;;
1224;SDS011;602;48.000;7.840;2022-09-06T01:49:58;3.03;;;2.63;;
1224;SDS011;602;48.000;7.840;2022-09-06T01:52:50;4.60;;;3.23;;
1224;SDS011;602;48.000;7.840;2022-09-06T01:55:26;3.00;;;2.80;;
1224;SDS011;602;48.000;7.840;2022-09-06T01:58:07;3.30;;;2.97;;
1224;SDS011;602;48.000;7.840;2022-09-06T02:00:50;2.67;;;2.47;;
1224;SDS011;602;48.000;7.840;2022-09-06T02:03:24;2.37;;;2.17;;
1224;SDS011;602;48.000;7.840;2022-09-06T02:05:58;2.63;;;2.43;;
1224;SDS011;602;48.000;7.840;2022-09-06T02:08:32;4.00;;;2.17;;
1224;SDS011;602;48.000;7.840;2022-09-06T02:11:03;3.07;;;2.77;;
1224;SDS011;602;48.000;7.840;2022-09-06T02:13:34;4.43;;;3.17;;
1224;SDS011;602;48.000;7.840;2022-09-06T02:16:06;4.10;;;2.80;;
1224;SDS011;602;48.000;7.840;2022-09-06T02:18:36;2.80;;;2.60;;
1224;SDS011;602;48.000;7.840;2022-09-06T02:21:05;2.50;;;2.00;;
1224;SDS011;602;48.000;7.840;2022-09-06T02:23:37;2.70;;;2.47;;
1224;SDS011;602;48.000;7.840;2022-09-06T02:26:06;2.90;;;2.70;;
1224;SDS011;602;48.000;7.840;2022-09-06T02:28:36;2.57;;;2.30;;
1224;SDS011;602;48.000;7.840;2022-09-06T02:31:04;2.60;;;2.37;;
1224;SDS011;602;48.000;7.840;2022-09-06T02:33:38;2.70;;;2.50;;
1224;SDS011;602;48.000;7.840;2022-09-06T02:36:09;2.20;;;2.00;;
1224;SDS011;602;48.000;7.840;2022-09-06T02:38:36;2.33;;;2.13;;
1224;SDS011;602;48.000;7.840;2022-09-06T02:41:04;2.87;;;2.23;;
1224;SDS011;602;48.000;7.840;2022-09-06T02:43:32;3.50;;;2.50;;
1224;SDS011;602;48.000;7.840;2022-09-06T02:45:59;3.40;;;3.10;;
1224;SDS011;602;48.000;7.840;2022-09-06T02:48:27;3.03;;;2.60;;
1224;SDS011;602;48.000;7.840;2022-09-06T02:50:54;4.00;;;2.90;;
1224;SDS011;602;48.000;7.840;2022-09-06T02:53:21;4.67;;;3.10;;
1224;SDS011;602;48.000;7.840;2022-09-06T02:55:48;4.40;;;3.23;;
1224;SDS011;602;48.000;7.840;2022-09-06T02:58:15;3.73;;;3.07;;
1224;SDS011;602;48.000;7.840;2022-09-06T03:00:42;6.70;;;2.73;;
1224;SDS011;602;48.000;7.840;2022-09-06T03:03:09;3.20;;;2.90;;
1224;SDS011;602;48.000;7.840;2022-09-06T03:05:37;2.93;;;2.73;;
1224;SDS011;602;48.000;7.840;2022-09-06T03:08:04;6.10;;;2.83;;
1224;SDS011;602;48.000;7.840;2022-09-06T03:10:31;4.17;;;3.00;;
1224;SDS011;602;48.000;7.840;2022-09-06T03:12:58;4.80;;;2.80;;
1224;SDS011;602;48.000;7.840;2022-09-06T03:15:25;2.80;;;2.60;;
1224;SDS011;602;48.000;7.840;2022-09-06T03:17:55;3.33;;;3.03;;
1224;SDS011;602;48.000;7.840;2022-09-06T03:20:23;2.67;;;2.47;;
1224;SDS011;602;48.000;7.840;2022-09-06T03:22:52;3.70;;;2.80;;
1224;SDS011;602;48.000;7.840;2022-09-06T03:25:19;3.20;;;2.50;;
1224;SDS011;602;48.000;7.840;2022-09-06T03:27:46;3.27;;;2.67;;
1224;SDS011;602;48.000;7.840;2022-09-06T03:30:13;4.77;;;3.00;;
1224;SDS011;602;48.000;7.840;2022-09-06T03:32:40;6.03;;;2.60;;
1224;SDS011;602;48.000;7.840;2022-09-06T03:35:07;8.00;;;3.30;;
1224;SDS011;602;48.000;7.840;2022-09-06T03:37:35;3.43;;;3.07;;
1224;SDS011;602;48.000;7.840;2022-09-06T03:40:03;2.77;;;2.57;;
1224;SDS011;602;48.000;7.840;2022-09-06T03:42:31;3.20;;;2.90;;
1224;SDS011;602;48.000;7.840;2022-09-06T03:44:58;3.40;;;2.90;;
1224;SDS011;602;48.000;7.840;2022-09-06T03:47:25;3.17;;;2.97;;
1224;SDS011;602;48.000;7.840;2022-09-06T03:49:52;4.07;;;2.70;;
1224;SDS011;602;48.000;7.840;2022-09-06T03:52:19;2.93;;;2.70;;
1224;SDS011;602;48.000;7.840;2022-09-06T03:54:46;4.10;;;3.07;;
1224;SDS011;602;48.000;7.840;2022-09-06T03:57:14;3.07;;;2.60;;
1224;SDS011;602;48.000;7.840;2022-09-06T03:59:41;5.20;;;3.07;;
1224;SDS011;602;48.000;7.840;2022-09-06T04:02:08;4.00;;;3.00;;
1224;SDS011;602;48.000;7.840;2022-09-06T04:04:35;5.00;;;2.57;;
1224;SDS011;602;48.000;7.840;2022-09-06T04:07:02;5.23;;;3.13;;
1224;SDS011;602;48.000;7.840;2022-09-06T04:09:28;3.20;;;2.73;;
1224;SDS011;602;48.000;7.840;2022-09-06T04:11:55;10.70;;;2.70;;
1224;SDS011;602;48.000;7.840;2022-09-06T04:14:24;4.23;;;3.00;;
1224;SDS011;602;48.000;7.840;2022-09-06T04:16:50;6.63;;;3.37;;
1224;SDS011;602;48.000;7.840;2022-09-06T04:19:17;3.37;;;3.07;;
1224;SDS011;602;48.000;7.840;2022-09-06T04:21:44;3.30;;;3.07;;
1224;SDS011;602;48.000;7.840;2022-09-06T04:24:11;3.30;;;3.00;;
1224;SDS011;602;48.000;7.840;2022-09-06T04:26:38;3.20;;;2.90;;
1224;SDS011;602;48.000;7.840;2022-09-06T04:29:05;4.00;;;2.60;;
1224;SDS011;602;48.000;7.840;2022-09-06T04:31:33;2.67;;;2.40;;
1224;SDS011;602;48.000;7.840;2022-09-06T04:34:00;3.10;;;2.50;;
1224;SDS011;602;48.000;7.840;2022-09-06T04:36:27;3.37;;;2.70;;
1224;SDS011;602;48.000;7.840;2022-09-06T04:38:53;7.47;;;3.57;;
1224;SDS011;602;48.000;7.840;2022-09-06T04:41:21;5.10;;;3.40;;
1224;SDS011;602;48.000;7.840;2022-09-06T04:43:47;3.50;;;3.20;;
1224;SDS011;602;48.000;7.840;2022-09-06T04:46:17;5.20;;;2.60;;
1224;SDS011;602;48.000;7.840;2022-09-06T04:48:47;6.23;;;2.83;;
1224;SDS011;602;48.000;7.840;2022-09-06T04:51:15;3.57;;;2.80;;
1224;SDS011;602;48.000;7.840;2022-09-06T04:53:42;7.40;;;3.20;;
1224;SDS011;602;48.000;7.840;2022-09-06T04:56:10;5.60;;;3.40;;
1224;SDS011;602;48.000;7.840;2022-09-06T04:58:40;3.03;;;2.77;;
1224;SDS011;602;48.000;7.840;2022-09-06T05:01:07;4.80;;;2.90;;
1224;SDS011;602;48.000;7.840;2022-09-06T05:03:34;4.33;;;2.50;;
1224;SDS011;602;48.000;7.840;2022-09-06T05:06:06;2.67;;;2.47;;
1224;SDS011;602;48.000;7.840;2022-09-06T05:08:35;3.97;;;3.23;;
1224;SDS011;602;48.000;7.840;2022-09-06T05:11:03;5.53;;;1.93;;
1224;SDS011;602;48.000;7.840;2022-09-06T05:13:30;2.63;;;2.43;;
1224;SDS011;602;48.000;7.840;2022-09-06T05:15:58;4.40;;;2.97;;
1224;SDS011;602;48.000;7.840;2022-09-06T05:18:26;3.57;;;2.87;;
1224;SDS011;602;48.000;7.840;2022-09-06T05:20:53;10.20;;;3.07;;
1224;SDS011;602;48.000;7.840;2022-09-06T05:23:22;8.90;;;3.17;;
1224;SDS011;602;48.000;7.840;2022-09-06T05:25:49;3.13;;;2.60;;
1224;SDS011;602;48.000;7.840;2022-09-06T05:28:16;3.00;;;2.70;;
1224;SDS011;602;48.000;7.840;2022-09-06T05:30:43;3.77;;;2.37;;
1224;SDS011;602;48.000;7.840;2022-09-06T05:33:11;3.50;;;2.90;;
1224;SDS011;602;48.000;7.840;2022-09-06T05:35:39;7.33;;;3.47;;
1224;SDS011;602;48.000;7.840;2022-09-06T05:38:06;4.13;;;3.13;;
1224;SDS011;602;48.000;7.840;2022-09-06T05:40:34;8.10;;;3.37;;
1224;SDS011;602;48.000;7.840;2022-09-06T05:43:01;4.30;;;3.50;;
1224;SDS011;602;48.000;7.840;2022-09-06T05:45:28;4.83;;;3.03;;
1224;SDS011;602;48.000;7.840;2022-09-06T05:47:55;3.23;;;2.83;;
1224;SDS011;602;48.000;7.840;2022-09-06T05:50:22;4.37;;;2.70;;
1224;SDS011;602;48.000;7.840;2022-09-06T05:52:49;8.30;;;2.77;;
1224;SDS011;602;48.000;7.840;2022-09-06T05:55:18;2.97;;;2.77;;
1224;SDS011;602;48.000;7.840;2022-09-06T05:57:47;7.10;;;3.73;;
1224;SDS011;602;48.000;7.840;2022-09-06T06:00:14;3.17;;;2.80;;
1224;SDS011;602;48.000;7.840;2022-09-06T06:02:41;4.13;;;3.10;;
1224;SDS011;602;48.000;7.840;2022-09-06T06:05:07;5.37;;;4.83;;
1224;SDS011;602;48.000;7.840;2022-09-06T06:07:34;7.00;;;3.80;;
1224;SDS011;602;48.000;7.840;2022-09-06T06:10:01;3.37;;;3.03;;
1224;SDS011;602;48.000;7.840;2022-09-06T06:12:28;5.07;;;4.57;;
1224;SDS011;602;48.000;7.840;2022-09-06T06:14:57;3.30;;;3.00;;
1224;SDS011;602;48.000;7.840;2022-09-06T06:17:24;4.53;;;3.20;;
1224;SDS011;602;48.000;7.840;2022-09-06T06:19:51;3.00;;;2.70;;
1224;SDS011;602;48.000;7.840;2022-09-06T06:22:18;4.40;;;3.80;;
1224;SDS011;602;48.000;7.840;2022-09-06T06:24:45;5.90;;;3.47;;
1224;SDS011;602;48.000;7.840;2022-09-06T06:27:12;3.60;;;3.30;;
1224;SDS011;602;48.000;7.840;2022-09-06T06:29:39;6.83;;;3.27;;
1224;SDS011;602;48.000;7.840;2022-09-06T06:32:07;6.00;;;3.60;;
1224;SDS011;602;48.000;7.840;2022-09-06T06:34:34;3.07;;;2.67;;
1224;SDS011;602;48.000;7.840;2022-09-06T06:37:01;4.90;;;3.27;;
1224;SDS011;602;48.000;7.840;2022-09-06T06:39:28;2.90;;;2.70;;
1224;SDS011;602;48.000;7.840;2022-09-06T06:41:55;4.10;;;3.17;;
1224;SDS011;602;48.000;7.840;2022-09-06T06:44:22;4.40;;;3.63;;
1224;SDS011;602;48.000;7.840;2022-09-06T06:46:51;3.90;;;2.80;;
1224;SDS011;602;48.000;7.840;2022-09-06T06:49:20;5.37;;;2.50;;
1224;SDS011;602;48.000;7.840;2022-09-06T06:51:47;4.23;;;2.50;;
1224;SDS011;602;48.000;7.840;2022-09-06T06:54:14;4.63;;;3.23;;
1224;SDS011;602;48.000;7.840;2022-09-06T06:56:41;3.87;;;3.57;;
1224;SDS011;602;48.000;7.840;2022-09-06T06:59:08;11.20;;;6.47;;
1224;SDS011;602;48.000;7.840;2022-09-06T07:01:36;8.83;;;5.23;;
1224;SDS011;602;48.000;7.840;2022-09-06T07:04:03;9.90;;;4.77;;
1224;SDS011;602;48.000;7.840;2022-09-06T07:06:38;4.97;;;4.27;;
1224;SDS011;602;48.000;7.840;2022-09-06T07:09:12;5.60;;;3.73;;
1224;SDS011;602;48.000;7.840;2022-09-06T07:11:39;4.07;;;3.60;;
1224;SDS011;602;48.000;7.840;2022-09-06T07:14:06;11.87;;;4.17;;
1224;SDS011;602;48.000;7.840;2022-09-06T07:16:33;4.43;;;4.03;;
1224;SDS011;602;48.000;7.840;2022-09-06T07:19:00;4.60;;;4.13;;
1224;SDS011;602;48.000;7.840;2022-09-06T07:21:27;7.70;;;4.33;;
1224;SDS011;602;48.000;7.840;2022-09-06T07:23:56;4.17;;;3.77;;
1224;SDS011;602;48.000;7.840;2022-09-06T07:26:23;4.20;;;3.90;;
1224;SDS011;602;48.000;7.840;2022-09-06T07:28:51;3.77;;;3.27;;
1224;SDS011;602;48.000;7.840;2022-09-06T07:31:19;4.60;;;3.40;;
1224;SDS011;602;48.000;7.840;2022-09-06T07:33:49;4.20;;;3.80;;
1224;SDS011;602;48.000;7.840;2022-09-06T07:36:21;7.60;;;4.20;;
1224;SDS011;602;48.000;7.840;2022-09-06T07:39:04;3.90;;;3.03;;
1224;SDS011;602;48.000;7.840;2022-09-06T07:41:31;3.53;;;3.23;;
1224;SDS011;602;48.000;7.840;2022-09-06T07:43:58;6.20;;;3.57;;
1224;SDS011;602;48.000;7.840;2022-09-06T07:46:28;5.00;;;3.57;;
1224;SDS011;602;48.000;7.840;2022-09-06T07:49:10;4.17;;;3.63;;
1224;SDS011;602;48.000;7.840;2022-09-06T07:51:37;4.53;;;3.20;;
1224;SDS011;602;48.000;7.840;2022-09-06T07:54:11;4.00;;;3.40;;
1224;SDS011;602;48.000;7.840;2022-09-06T07:56:41;3.33;;;3.07;;
1224;SDS011;602;48.000;7.840;2022-09-06T07:59:08;8.00;;;4.20;;
1224;SDS011;602;48.000;7.840;2022-09-06T08:01:35;3.50;;;3.20;;
1224;SDS011;602;48.000;7.840;2022-09-06T08:04:05;3.40;;;3.10;;
1224;SDS011;602;48.000;7.840;2022-09-06T08:06:34;4.20;;;3.80;;
1224;SDS011;602;48.000;7.840;2022-09-06T08:09:08;5.23;;;3.57;;
1224;SDS011;602;48.000;7.840;2022-09-06T08:11:36;4.07;;;3.67;;
1224;SDS011;602;48.000;7.840;2022-09-06T08:14:04;4.80;;;3.70;;
1224;SDS011;602;48.000;7.840;2022-09-06T08:16:33;5.70;;;4.17;;
1224;SDS011;602;48.000;7.840;2022-09-06T08:19:02;5.40;;;4.00;;
1224;SDS011;602;48.000;7.840;2022-09-06T08:21:34;3.77;;;3.47;;
1224;SDS011;602;48.000;7.840;2022-09-06T08:24:01;4.33;;;2.80;;
1224;SDS011;602;48.000;7.840;2022-09-06T08:26:31;5.80;;;3.27;;
1224;SDS011;602;48.000;7.840;2022-09-06T08:29:00;2.77;;;2.57;;
1224;SDS011;602;48.000;7.840;2022-09-06T08:31:31;6.40;;;3.30;;
1224;SDS011;602;48.000;7.840;2022-09-06T08:33:59;2.83;;;2.57;;
1224;SDS011;602;48.000;7.840;2022-09-06T08:36:27;4.03;;;2.87;;
1224;SDS011;602;48.000;7.840;2022-09-06T08:38:54;3.67;;;2.87;;
1224;SDS011;602;48.000;7.840;2022-09-06T08:41:25;3.60;;;2.30;;
1224;SDS011;602;48.000;7.840;2022-09-06T08:44:05;2.43;;;2.23;;
1224;SDS011;602;48.000;7.840;2022-09-06T08:46:41;3.33;;;2.90;;
1224;SDS011;602;48.000;7.840;2022-09-06T08:49:15;3.30;;;2.73;;
1224;SDS011;602;48.000;7.840;2022-09-06T08:51:53;2.93;;;2.73;;
1224;SDS011;602;48.000;7.840;2022-09-06T08:54:40;2.53;;;2.33;;
1224;SDS011;602;48.000;7.840;2022-09-06T08:57:13;4.47;;;3.13;;
1224;SDS011;602;48.000;7.840;2022-09-06T08:59:58;2.93;;;2.70;;
1224;SDS011;602;48.000;7.840;2022-09-06T09:02:40;4.30;;;2.97;;
1224;SDS011;602;48.000;7.840;2022-09-06T09:05:22;7.60;;;2.40;;
1224;SDS011;602;48.000;7.840;2022-09-06T09:07:55;3.87;;;2.80;;
1224;SDS011;602;48.000;7.840;2022-09-06T09:10:30;3.00;;;2.73;;
1224;SDS011;602;48.000;7.840;2022-09-06T09:13:06;5.57;;;3.07;;
1224;SDS011;602;48.000;7.840;2022-09-06T09:15:43;3.80;;;2.23;;
1224;SDS011;602;48.000;7.840;2022-09-06T09:18:25;2.60;;;1.97;;
1224;SDS011;602;48.000;7.840;2022-09-06T09:20:56;2.63;;;2.33;;
1224;SDS011;602;48.000;7.840;2022-09-06T09:23:24;5.53;;;2.80;;
1224;SDS011;602;48.000;7.840;2022-09-06T09:25:51;3.80;;;2.47;;
1224;SDS011;602;48.000;7.840;2022-09-06T09:28:23;4.67;;;3.37;;
1224;SDS011;602;48.000;7.840;2022-09-06T09:30:52;4.87;;;2.70;;
1224;SDS011;602;48.000;7.840;2022-09-06T09:33:25;5.47;;;3.07;;
1224;SDS011;602;48.000;7.840;2022-09-06T09:35:54;3.97;;;2.63;;
1224;SDS011;602;48.000;7.840;2022-09-06T09:38:24;7.43;;;3.13;;
1224;SDS011;602;48.000;7.840;2022-09-06T09:40:53;2.90;;;2.60;;
1224;SDS011;602;48.000;7.840;2022-09-06T09:43:21;2.23;;;2.03;;
1224;SDS011;602;48.000;7.840;2022-09-06T09:48:38;4.67;;;2.13;;
1224;SDS011;602;48.000;7.840;2022-09-06T09:51:21;2.77;;;2.00;;
1224;SDS011;602;48.000;7.840;2022-09-06T09:53:49;2.77;;;2.50;;
1224;SDS011;602;48.000;7.840;2022-09-06T09:56:19;2.93;;;2.63;;
1224;SDS011;602;48.000;7.840;2022-09-06T09:58:53;2.60;;;2.43;;
1224;SDS011;602;48.000;7.840;2022-09-06T10:01:24;3.20;;;2.50;;
1224;SDS011;602;48.000;7.840;2022-09-06T10:03:58;3.43;;;2.57;;
1224;SDS011;602;48.000;7.840;2022-09-06T10:06:27;2.20;;;1.93;;
1224;SDS011;602;48.000;7.840;2022-09-06T10:08:54;4.53;;;1.97;;
1224;SDS011;602;48.000;7.840;2022-09-06T10:14:11;1.97;;;1.87;;
1224;SDS011;602;48.000;7.840;2022-09-06T10:16:51;2.23;;;1.97;;
1224;SDS011;602;48.000;7.840;2022-09-06T10:19:22;1.90;;;1.67;;
1224;SDS011;602;48.000;7.840;2022-09-06T10:22:03;4.70;;;2.03;;
1224;SDS011;602;48.000;7.840;2022-09-06T10:24:41;2.00;;;1.80;;
1224;SDS011;602;48.000;7.840;2022-09-06T10:27:19;2.33;;;1.97;;
1224;SDS011;602;48.000;7.840;2022-09-06T10:29:53;1.63;;;1.53;;
1224;SDS011;602;48.000;7.840;2022-09-06T10:32:28;2.70;;;1.90;;
1224;SDS011;602;48.000;7.840;2022-09-06T10:35:08;1.60;;;1.50;;
1224;SDS011;602;48.000;7.840;2022-09-06T10:37:44;1.40;;;1.30;;
1224;SDS011;602;48.000;7.840;2022-09-06T10:40:18;1.57;;;1.47;;
1224;SDS011;602;48.000;7.840;2022-09-06T10:42:53;2.53;;;1.77;;
1224;SDS011;602;48.000;7.840;2022-09-06T10:45:26;1.13;;;1.13;;
1224;SDS011;602;48.000;7.840;2022-09-06T10:47:59;3.07;;;1.80;;
1224;SDS011;602;48.000;7.840;2022-09-06T10:50:33;3.67;;;1.73;;
1224;SDS011;602;48.000;7.840;2022-09-06T10:53:09;3.97;;;2.30;;
1224;SDS011;602;48.000;7.840;2022-09-06T10:55:41;1.87;;;1.77;;
1224;SDS011;602;48.000;7.840;2022-09-06T10:58:13;4.57;;;2.07;;
1224;SDS011;602;48.000;7.840;2022-09-06T11:00:46;2.20;;;2.00;;
1224;SDS011;602;48.000;7.840;2022-09-06T11:03:17;5.03;;;2.30;;
1224;SDS011;602;48.000;7.840;2022-09-06T11:05:50;3.30;;;2.43;;
1224;SDS011;602;48.000;7.840;2022-09-06T11:08:20;2.10;;;1.90;;
1224;SDS011;602;48.000;7.840;2022-09-06T11:10:50;1.83;;;1.73;;
1224;SDS011;602;48.000;7.840;2022-09-06T11:13:20;2.80;;;2.10;;
1224;SDS011;602;48.000;7.840;2022-09-06T11:15:50;2.87;;;2.63;;
1224;SDS011;602;48.000;7.840;2022-09-06T11:18:33;4.33;;;2.70;;
1224;SDS011;602;48.000;7.840;2022-09-06T11:24:03;2.37;;;2.10;;
1224;SDS011;602;48.000;7.840;2022-09-06T11:26:39;4.50;;;2.27;;
1224;SDS011;602;48.000;7.840;2022-09-06T11:29:09;3.37;;;2.53;;
1224;SDS011;602;48.000;7.840;2022-09-06T11:31:53;3.10;;;2.43;;
1224;SDS011;602;48.000;7.840;2022-09-06T11:34:23;3.77;;;2.80;;
1224;SDS011;602;48.000;7.840;2022-09-06T11:36:53;3.70;;;2.70;;
1224;SDS011;602;48.000;7.840;2022-09-06T11:39:25;3.90;;;2.47;;
1224;SDS011;602;48.000;7.840;2022-09-06T11:41:55;2.80;;;2.50;;
1224;SDS011;602;48.000;7.840;2022-09-06T11:53:14;4.93;;;1.90;;
1224;SDS011;602;48.000;7.840;2022-09-06T11:55:42;2.40;;;2.00;;
1224;SDS011;602;48.000;7.840;2022-09-06T11:58:18;3.33;;;1.87;;
1224;SDS011;602;48.000;7.840;2022-09-06T12:03:59;3.23;;;2.10;;
1224;SDS011;602;48.000;7.840;2022-09-06T12:06:29;2.50;;;2.30;;
1224;SDS011;602;48.000;7.840;2022-09-06T12:08:57;2.40;;;2.20;;
1224;SDS011;602;48.000;7.840;2022-09-06T12:11:28;2.33;;;2.13;;
1224;SDS011;602;48.000;7.840;2022-09-06T12:14:01;1.90;;;1.80;;
1224;SDS011;602;48.000;7.840;2022-09-06T12:19:40;3.47;;;2.40;;
1224;SDS011;602;48.000;7.840;2022-09-06T12:31:24;3.30;;;1.93;;
1224;SDS011;602;48.000;7.840;2022-09-06T12:34:08;2.23;;;2.07;;
1224;SDS011;602;48.000;7.840;2022-09-06T12:36:45;2.20;;;2.03;;
1224;SDS011;602;48.000;7.840;2022-09-06T12:39:23;2.07;;;1.77;;
1224;SDS011;602;48.000;7.840;2022-09-06T12:41:53;3.37;;;2.60;;
1224;SDS011;602;48.000;7.840;2022-09-06T12:44:25;3.57;;;2.07;;
1224;SDS011;602;48.000;7.840;2022-09-06T12:46:55;2.50;;;2.30;;
1224;SDS011;602;48.000;7.840;2022-09-06T12:49:27;3.33;;;2.23;;
1224;SDS011;602;48.000;7.840;2022-09-06T12:52:04;2.13;;;1.93;;
1224;SDS011;602;48.000;7.840;2022-09-06T12:54:32;2.03;;;1.93;;
1224;SDS011;602;48.000;7.840;2022-09-06T12:57:11;3.53;;;1.90;;
1224;SDS011;602;48.000;7.840;2022-09-06T12:59:45;1.80;;;1.70;;
1224;SDS011;602;48.000;7.840;2022-09-06T13:02:15;5.00;;;2.10;;
1224;SDS011;602;48.000;7.840;2022-09-06T13:04:45;3.20;;;2.17;;
1224;SDS011;602;48.000;7.840;2022-09-06T13:07:15;2.80;;;2.30;;
1224;SDS011;602;48.000;7.840;2022-09-06T13:09:44;2.70;;;2.20;;
1224;SDS011;602;48.000;7.840;2022-09-06T13:12:18;3.90;;;2.17;;
1224;SDS011;602;48.000;7.840;2022-09-06T13:14:51;2.80;;;2.17;;
1224;SDS011;602;48.000;7.840;2022-09-06T13:17:22;2.80;;;2.43;;
1224;SDS011;602;48.000;7.840;2022-09-06T13:19:51;4.20;;;2.00;;
1224;SDS011;602;48.000;7.840;2022-09-06T13:22:37;2.20;;;1.83;;
1224;SDS011;602;48.000;7.840;2022-09-06T13:25:11;2.17;;;1.93;;
1224;SDS011;602;48.000;7.840;2022-09-06T13:27:42;2.83;;;2.63;;
1224;SDS011;602;48.000;7.840;2022-09-06T13:30:34;6.23;;;2.90;;
1224;SDS011;602;48.000;7.840;2022-09-06T13:33:03;5.20;;;2.30;;
1224;SDS011;602;48.000;7.840;2022-09-06T13:35:32;2.50;;;2.30;;
1224;SDS011;602;48.000;7.840;2022-09-06T13:38:20;2.30;;;2.10;;
1224;SDS011;602;48.000;7.840;2022-09-06T13:40:55;1.73;;;1.63;;
1224;SDS011;602;48.000;7.840;2022-09-06T13:43:24;2.00;;;1.90;;
1224;SDS011;602;48.000;7.840;2022-09-06T13:46:02;1.90;;;1.80;;
1224;SDS011;602;48.000;7.840;2022-09-06T13:48:31;2.10;;;2.00;;
1224;SDS011;602;48.000;7.840;2022-09-06T13:50:57;2.30;;;2.20;;
1224;SDS011;602;48.000;7.840;2022-09-06T13:53:25;1.90;;;1.80;;
1224;SDS011;602;48.000;7.840;2022-09-06T13:55:52;2.53;;;1.97;;
1224;SDS011;602;48.000;7.840;2022-09-06T13:58:19;2.83;;;1.77;;
1224;SDS011;602;48.000;7.840;2022-09-06T14:00:47;2.80;;;2.07;;
1224;SDS011;602;48.000;7.840;2022-09-06T14:03:18;2.43;;;2.23;;
1224;SDS011;602;48.000;7.840;2022-09-06T14:05:47;3.80;;;1.70;;
1224;SDS011;602;48.000;7.840;2022-09-06T14:08:14;2.23;;;2.10;;
1224;SDS011;602;48.000;7.840;2022-09-06T14:10:41;2.03;;;1.93;;
1224;SDS011;602;48.000;7.840;2022-09-06T14:13:10;2.00;;;1.90;;
1224;SDS011;602;48.000;7.840;2022-09-06T14:15:37;1.97;;;1.50;;
1224;SDS011;602;48.000;7.840;2022-09-06T14:18:06;2.77;;;2.50;;
1224;SDS011;602;48.000;7.840;2022-09-06T14:20:32;1.90;;;1.80;;
1224;SDS011;602;48.000;7.840;2022-09-06T14:23:00;8.33;;;2.03;;
1224;SDS011;602;48.000;7.840;2022-09-06T14:25:26;1.53;;;1.43;;
1224;SDS011;602;48.000;7.840;2022-09-06T14:27:53;3.00;;;2.00;;
1224;SDS011;602;48.000;7.840;2022-09-06T14:30:20;1.73;;;1.60;;
1224;SDS011;602;48.000;7.840;2022-09-06T14:32:47;1.90;;;1.77;;
1224;SDS011;602;48.000;7.840;2022-09-06T14:35:15;2.07;;;1.87;;
1224;SDS011;602;48.000;7.840;2022-09-06T14:37:42;3.77;;;1.67;;
1224;SDS011;602;48.000;7.840;2022-09-06T14:40:09;2.03;;;1.70;;
1224;SDS011;602;48.000;7.840;2022-09-06T14:42:36;5.63;;;2.47;;
1224;SDS011;602;48.000;7.840;2022-09-06T14:45:03;5.27;;;1.80;;
1224;SDS011;602;48.000;7.840;2022-09-06T14:47:31;1.83;;;1.73;;
1224;SDS011;602;48.000;7.840;2022-09-06T14:49:58;2.60;;;1.97;;
1224;SDS011;602;48.000;7.840;2022-09-06T14:52:27;1.60;;;1.47;;
1224;SDS011;602;48.000;7.840;2022-09-06T14:54:54;1.50;;;1.40;;
1224;SDS011;602;48.000;7.840;2022-09-06T15:00:05;4.10;;;1.60;;
1224;SDS011;602;48.000;7.840;2022-09-06T15:02:34;2.30;;;1.50;;
1224;SDS011;602;48.000;7.840;2022-09-06T15:05:01;1.47;;;1.37;;
1224;SDS011;602;48.000;7.840;2022-09-06T15:07:30;1.60;;;1.47;;
1224;SDS011;602;48.000;7.840;2022-09-06T15:09:57;1.77;;;1.60;;
1224;SDS011;602;48.000;7.840;2022-09-06T15:12:24;1.73;;;1.63;;
1224;SDS011;602;48.000;7.840;2022-09-06T15:14:51;5.43;;;1.57;;
1224;SDS011;602;48.000;7.840;2022-09-06T15:17:18;1.63;;;1.43;;
1224;SDS011;602;48.000;7.840;2022-09-06T15:19:45;1.73;;;1.37;;
1224;SDS011;602;48.000;7.840;2022-09-06T15:22:12;1.67;;;1.50;;
1224;SDS011;602;48.000;7.840;2022-09-06T15:24:40;3.57;;;1.93;;
1224;SDS011;602;48.000;7.840;2022-09-06T15:27:07;1.60;;;1.50;;
1224;SDS011;602;48.000;7.840;2022-09-06T15:29:34;2.70;;;1.70;;
1224;SDS011;602;48.000;7.840;2022-09-06T15:32:01;2.20;;;1.67;;
1224;SDS011;602;48.000;7.840;2022-09-06T15:34:28;5.17;;;1.80;;
1224;SDS011;602;48.000;7.840;2022-09-06T15:36:55;2.97;;;1.97;;
1224;SDS011;602;48.000;7.840;2022-09-06T15:39:22;2.43;;;1.60;;
1224;SDS011;602;48.000;7.840;2022-09-06T15:41:50;1.40;;;1.30;;
1224;SDS011;602;48.000;7.840;2022-09-06T15:44:18;4.40;;;1.93;;
1224;SDS011;602;48.000;7.840;2022-09-06T15:46:46;2.10;;;1.60;;
1224;SDS011;602;48.000;7.840;2022-09-06T15:49:16;2.10;;;2.00;;
1224;SDS011;602;48.000;7.840;2022-09-06T15:51:44;1.60;;;1.50;;
1224;SDS011;602;48.000;7.840;2022-09-06T15:54:12;1.90;;;1.70;;
1224;SDS011;602;48.000;7.840;2022-09-06T15:56:40;2.00;;;1.90;;
1224;SDS011;602;48.000;7.840;2022-09-06T15:59:09;3.30;;;2.23;;
1224;SDS011;602;48.000;7.840;2022-09-06T16:01:37;2.43;;;1.70;;
1224;SDS011;602;48.000;7.840;2022-09-06T16:04:04;2.10;;;1.90;;
1224;SDS011;602;48.000;7.840;2022-09-06T16:06:33;4.20;;;2.53;;
1224;SDS011;602;48.000;7.840;2022-09-06T16:09:03;3.47;;;2.07;;
1224;SDS011;602;48.000;7.840;2022-09-06T16:11:31;2.00;;;1.80;;
1224;SDS011;602;48.000;7.840;2022-09-06T16:14:00;2.43;;;2.23;;
1224;SDS011;602;48.000;7.840;2022-09-06T16:16:29;2.67;;;1.70;;
1224;SDS011;602;48.000;7.840;2022-09-06T16:18:56;2.20;;;1.80;;
1224;SDS011;602;48.000;7.840;2022-09-06T16:21:26;2.80;;;2.07;;
1224;SDS011;602;48.000;7.840;2022-09-06T16:23:56;1.83;;;1.57;;